Time;durP1;ratioP1;P1;durP2;ratioP2;P2;SDS_P1;SDS_P2;PMS_P1;PMS_P2;Temp;Humidity;BMP_temperature;BMP_pressure;BME280_temperature;BME280_humidity;BME280_pressure;Samples;Min_cycle;Max_cycle;Signal;HPM_P1;HPM_P2
2022/10/06 00:00:50;;;;;;;2.47;0.60;;;18.30;99.90;;;;;;5034055;28;20223;-74
2022/10/06 00:03:16;;;;;;;2.27;0.53;;;18.20;99.90;;;;;;5033795;28;20643;-74
2022/10/06 00:05:42;;;;;;;2.30;0.60;;;18.20;99.90;;;;;;5033805;28;20572;-74
2022/10/06 00:08:08;;;;;;;2.13;0.60;;;18.10;99.90;;;;;;5034052;28;20923;-73
2022/10/06 00:10:34;;;;;;;2.40;0.60;;;18.00;99.90;;;;;;5033805;28;20188;-75
2022/10/06 00:13:00;;;;;;;2.03;0.60;;;18.00;99.90;;;;;;5033775;28;20628;-74
2022/10/06 00:15:30;;;;;;;1.50;0.50;;;17.90;99.90;;;;;;5033491;28;20177;-74
2022/10/06 00:17:57;;;;;;;2.93;0.93;;;17.90;99.90;;;;;;5033705;28;20565;-74
2022/10/06 00:20:24;;;;;;;3.00;0.50;;;17.80;99.90;;;;;;4999625;28;20665;-74
2022/10/06 00:22:50;;;;;;;1.30;0.50;;;17.80;99.90;;;;;;5015501;28;20648;-73
2022/10/06 00:25:20;;;;;;;1.70;0.67;;;17.80;99.90;;;;;;5033358;28;20564;-74
2022/10/06 00:27:47;;;;;;;1.13;0.50;;;17.70;99.90;;;;;;5033466;28;20583;-74
2022/10/06 00:30:21;;;;;;;2.00;0.50;;;17.70;99.90;;;;;;5015776;28;20687;-73
2022/10/06 00:32:52;;;;;;;3.10;0.60;;;17.70;99.90;;;;;;5015457;28;21057;-73
2022/10/06 00:35:18;;;;;;;2.43;0.80;;;17.70;99.90;;;;;;5015473;28;20944;-76
2022/10/06 00:37:45;;;;;;;2.87;0.63;;;17.70;99.90;;;;;;5015689;28;20563;-75
2022/10/06 00:40:11;;;;;;;1.67;0.60;;;17.70;99.90;;;;;;5033206;28;20652;-73
2022/10/06 00:42:54;;;;;;;1.60;0.60;;;17.70;99.90;;;;;;5032988;28;20300;-74
2022/10/06 00:45:32;;;;;;;2.00;0.60;;;17.70;99.90;;;;;;5014774;28;20584;-74
2022/10/06 00:48:02;;;;;;;1.60;0.60;;;17.70;99.90;;;;;;5032999;28;20642;-74
2022/10/06 00:50:29;;;;;;;1.77;0.70;;;17.70;99.90;;;;;;5033016;28;20655;-77
2022/10/06 00:52:55;;;;;;;1.87;0.67;;;17.60;99.90;;;;;;4998612;28;20643;-74
2022/10/06 00:55:21;;;;;;;2.80;0.60;;;17.60;99.90;;;;;;5032425;28;20571;-74
2022/10/06 00:57:48;;;;;;;1.80;0.60;;;17.60;99.90;;;;;;5032817;28;20169;-74
2022/10/06 01:00:14;;;;;;;2.20;0.53;;;17.60;99.90;;;;;;4998758;28;20582;-74
2022/10/06 01:03:04;;;;;;;2.30;0.60;;;17.60;99.90;;;;;;4998427;28;21168;-74
2022/10/06 01:05:34;;;;;;;2.30;0.60;;;17.60;99.90;;;;;;5014987;28;20977;-80
2022/10/06 01:08:00;;;;;;;3.13;0.60;;;17.60;99.90;;;;;;5020766;28;20664;-79
2022/10/06 01:10:26;;;;;;;1.33;0.53;;;17.60;99.90;;;;;;5014739;28;20575;-79
2022/10/06 01:12:52;;;;;;;1.83;0.67;;;17.60;99.90;;;;;;5014564;28;20636;-73
2022/10/06 01:15:20;;;;;;;3.87;0.80;;;17.50;99.90;;;;;;5032280;28;20609;-72
2022/10/06 01:18:12;;;;;;;1.77;0.60;;;17.50;99.90;;;;;;5032356;28;20659;-75
2022/10/06 01:20:41;;;;;;;2.00;0.70;;;17.40;99.90;;;;;;4998430;28;20569;-72
2022/10/06 01:23:09;;;;;;;2.20;0.77;;;17.40;99.90;;;;;;5014430;28;20974;-72
2022/10/06 01:25:36;;;;;;;6.17;0.80;;;17.30;99.90;;;;;;5014555;28;20576;-75
2022/10/06 01:28:05;;;;;;;3.90;0.60;;;17.20;99.90;;;;;;5032277;28;20599;-72
2022/10/06 01:30:42;;;;;;;3.13;0.60;;;17.10;99.90;;;;;;5014588;28;20564;-72
2022/10/06 01:33:08;;;;;;;1.83;0.70;;;17.10;99.90;;;;;;5014353;28;21266;-73
2022/10/06 01:35:34;;;;;;;3.37;0.57;;;17.00;99.90;;;;;;5014342;28;20663;-72
2022/10/06 01:38:00;;;;;;;3.40;0.60;;;17.00;99.90;;;;;;5014971;28;20606;-74
2022/10/06 01:40:29;;;;;;;2.73;0.60;;;16.90;99.90;;;;;;5014368;28;20596;-74
2022/10/06 01:42:57;;;;;;;3.90;0.80;;;16.80;99.90;;;;;;5014521;28;20592;-74
2022/10/06 01:45:25;;;;;;;3.47;0.80;;;16.80;99.90;;;;;;5014168;28;20674;-76
2022/10/06 01:47:51;;;;;;;6.40;0.70;;;16.70;99.90;;;;;;5014470;28;20600;-75
2022/10/06 01:50:17;;;;;;;1.60;0.53;;;16.70;99.90;;;;;;5014243;28;20633;-75
2022/10/06 01:52:43;;;;;;;2.83;0.70;;;16.60;99.90;;;;;;5014147;28;20624;-75
2022/10/06 01:55:09;;;;;;;3.83;0.70;;;16.60;99.90;;;;;;5014154;28;20925;-75
2022/10/06 01:57:40;;;;;;;2.80;0.60;;;16.50;99.90;;;;;;5014500;28;20502;-75
2022/10/06 02:00:06;;;;;;;1.87;0.67;;;16.50;99.90;;;;;;4997800;28;20561;-75
2022/10/06 02:02:39;;;;;;;1.90;0.60;;;16.50;99.90;;;;;;5031800;28;20603;-75
2022/10/06 02:05:05;;;;;;;3.33;0.90;;;16.40;99.90;;;;;;5013874;28;20561;-75
2022/10/06 02:07:37;;;;;;;3.07;0.73;;;16.40;99.90;;;;;;4998141;28;20575;-75
2022/10/06 02:10:05;;;;;;;5.17;0.80;;;16.30;99.90;;;;;;5031841;28;20572;-75
2022/10/06 02:12:33;;;;;;;2.33;0.70;;;16.30;99.90;;;;;;5013898;28;21237;-75
2022/10/06 02:14:59;;;;;;;3.03;0.70;;;16.30;99.90;;;;;;5013799;28;20584;-75
2022/10/06 02:17:25;;;;;;;5.90;1.20;;;16.20;99.90;;;;;;4997563;28;20573;-75
2022/10/06 02:19:51;;;;;;;2.63;0.70;;;16.20;99.90;;;;;;5014066;28;20646;-75
2022/10/06 02:22:17;;;;;;;5.20;1.30;;;16.20;99.90;;;;;;5030348;28;20616;-75
2022/10/06 02:24:43;;;;;;;2.00;0.70;;;16.10;99.90;;;;;;5013608;28;20775;-75
2022/10/06 02:27:09;;;;;;;2.83;0.70;;;16.10;99.90;;;;;;5013954;28;20642;-75
2022/10/06 02:29:35;;;;;;;3.70;1.10;;;16.10;99.90;;;;;;5014206;28;20499;-75
2022/10/06 02:32:02;;;;;;;2.60;0.70;;;16.10;99.90;;;;;;5013610;28;20632;-75
2022/10/06 02:34:28;;;;;;;4.10;0.70;;;16.10;99.90;;;;;;5013516;28;20579;-75
2022/10/06 02:36:54;;;;;;;2.57;0.83;;;16.00;99.90;;;;;;5013812;28;20177;-75
2022/10/06 02:39:20;;;;;;;3.37;1.00;;;16.00;99.90;;;;;;5013945;28;20560;-74
2022/10/06 02:41:46;;;;;;;2.60;0.80;;;16.00;99.90;;;;;;5013606;28;20729;-75
2022/10/06 02:44:11;;;;;;;4.73;0.90;;;15.90;99.90;;;;;;5013555;28;20192;-75
2022/10/06 02:46:40;;;;;;;3.60;0.70;;;15.90;99.90;;;;;;5013690;28;20588;-75
2022/10/06 02:49:06;;;;;;;5.73;0.70;;;15.90;99.90;;;;;;5013526;28;20711;-75
2022/10/06 02:51:33;;;;;;;3.47;0.70;;;15.90;99.90;;;;;;5013522;28;20533;-74
2022/10/06 02:53:59;;;;;;;3.13;0.80;;;15.80;99.90;;;;;;5013379;28;21189;-74
2022/10/06 02:56:25;;;;;;;3.33;0.83;;;15.80;99.90;;;;;;5031383;28;20607;-74
2022/10/06 02:58:52;;;;;;;2.70;0.90;;;15.80;99.90;;;;;;5013619;28;20166;-74
2022/10/06 03:01:31;;;;;;;3.50;1.00;;;15.80;99.90;;;;;;5013678;28;20591;-75
2022/10/06 03:04:01;;;;;;;7.73;2.33;;;15.80;99.90;;;;;;4981297;28;20921;-75
2022/10/06 03:06:29;;;;;;;8.70;1.00;;;15.70;99.90;;;;;;5013679;28;20576;-75
2022/10/06 03:09:09;;;;;;;5.93;1.40;;;15.70;99.90;;;;;;4997143;28;20669;-74
2022/10/06 03:11:39;;;;;;;3.07;0.80;;;15.70;99.90;;;;;;5013267;28;20689;-74
2022/10/06 03:14:06;;;;;;;5.70;1.00;;;15.70;99.90;;;;;;4996739;28;21156;-74
2022/10/06 03:16:35;;;;;;;5.67;0.97;;;15.70;99.90;;;;;;5031044;28;20914;-75
2022/10/06 03:19:02;;;;;;;5.70;1.20;;;15.60;99.90;;;;;;5013103;28;20576;-75
2022/10/06 03:21:32;;;;;;;4.93;0.90;;;15.60;99.90;;;;;;5013042;28;20592;-75
2022/10/06 03:23:58;;;;;;;4.53;0.90;;;15.60;99.90;;;;;;5013034;28;20580;-75
2022/10/06 03:26:38;;;;;;;7.53;1.10;;;15.50;99.90;;;;;;5013280;28;21143;-75
2022/10/06 03:29:04;;;;;;;5.53;0.80;;;15.50;99.90;;;;;;5013212;28;20637;-75
2022/10/06 03:31:30;;;;;;;3.10;0.80;;;15.50;99.90;;;;;;4996643;28;21199;-75
2022/10/06 03:33:56;;;;;;;4.20;0.90;;;15.50;99.90;;;;;;5033905;28;20567;-75
2022/10/06 03:36:28;;;;;;;3.57;0.80;;;15.40;99.90;;;;;;5016834;28;20913;-74
2022/10/06 03:38:54;;;;;;;2.73;0.90;;;15.40;99.90;;;;;;5000259;28;20571;-75
2022/10/06 03:41:24;;;;;;;7.83;0.90;;;15.30;99.90;;;;;;5016734;28;21090;-75
2022/10/06 03:43:52;;;;;;;4.30;0.70;;;15.30;99.90;;;;;;5034136;28;20655;-75
2022/10/06 03:46:21;;;;;;;6.97;0.80;;;15.30;99.90;;;;;;5016508;28;20924;-74
2022/10/06 03:48:48;;;;;;;5.60;1.10;;;15.30;99.90;;;;;;5016603;28;20561;-74
2022/10/06 03:51:27;;;;;;;3.13;0.80;;;15.20;99.90;;;;;;5016436;28;20552;-74
2022/10/06 03:53:55;;;;;;;8.30;1.30;;;15.20;99.90;;;;;;5016175;28;20655;-75
2022/10/06 03:56:22;;;;;;;5.22;1.23;;;15.20;99.90;;;;;;5016563;28;20611;-75
2022/10/06 03:58:50;;;;;;;5.57;1.07;;;15.20;99.90;;;;;;5016542;28;20178;-75
2022/10/06 04:01:26;;;;;;;10.93;1.60;;;15.10;99.90;;;;;;4999700;28;20631;-75
2022/10/06 04:03:54;;;;;;;3.50;1.00;;;15.10;99.90;;;;;;4999488;28;20612;-75
2022/10/06 04:06:20;;;;;;;6.27;1.20;;;15.10;99.90;;;;;;5016214;28;20192;-75
2022/10/06 04:08:48;;;;;;;9.00;1.67;;;15.00;99.90;;;;;;5016115;28;20972;-75
2022/10/06 04:11:22;;;;;;;5.03;1.00;;;15.00;99.90;;;;;;5015790;28;20675;-75
2022/10/06 04:13:56;;;;;;;4.53;1.00;;;15.00;99.90;;;;;;4999528;28;20678;-75
2022/10/06 04:16:25;;;;;;;4.50;0.90;;;15.00;99.90;;;;;;5016400;28;20532;-75
2022/10/06 04:18:56;;;;;;;9.23;1.73;;;15.00;99.90;;;;;;4999973;28;20679;-75
2022/10/06 04:21:23;;;;;;;4.60;1.10;;;15.00;99.90;;;;;;5015812;28;20593;-75
2022/10/06 04:23:54;;;;;;;6.20;1.30;;;14.90;99.90;;;;;;5015889;28;20557;-75
2022/10/06 04:26:22;;;;;;;5.20;0.97;;;14.90;99.90;;;;;;5015920;28;20929;-75
2022/10/06 04:28:51;;;;;;;4.20;0.90;;;14.90;99.90;;;;;;5015862;28;20565;-74
2022/10/06 04:31:22;;;;;;;4.70;1.30;;;14.90;99.90;;;;;;5015950;28;20627;-75
2022/10/06 04:33:56;;;;;;;4.70;0.80;;;14.90;99.90;;;;;;5015406;28;20973;-75
2022/10/06 04:36:26;;;;;;;3.73;0.90;;;14.90;99.90;;;;;;5015645;28;20181;-75
2022/10/06 04:38:57;;;;;;;4.70;1.03;;;14.80;99.90;;;;;;4999454;28;20561;-75
2022/10/06 04:41:31;;;;;;;8.57;1.40;;;14.80;99.90;;;;;;5015399;28;20569;-74
2022/10/06 04:43:59;;;;;;;4.70;1.10;;;14.80;99.90;;;;;;5014339;28;21055;-75
2022/10/06 04:46:26;;;;;;;6.17;0.80;;;14.80;99.90;;;;;;4999314;28;20909;-75
2022/10/06 04:48:53;;;;;;;4.13;0.90;;;14.70;99.90;;;;;;5015572;28;20572;-75
2022/10/06 04:51:23;;;;;;;7.93;1.40;;;14.70;99.90;;;;;;4983061;28;20561;-75
2022/10/06 04:53:50;;;;;;;5.20;1.05;;;14.70;99.90;;;;;;4999309;28;20192;-75
2022/10/06 04:56:28;;;;;;;7.43;1.30;;;14.60;99.90;;;;;;5015554;28;20189;-76
2022/10/06 04:58:56;;;;;;;8.88;1.60;;;14.60;99.90;;;;;;5015452;28;20165;-75
2022/10/06 05:01:25;;;;;;;7.88;1.45;;;14.60;99.90;;;;;;5015295;28;20252;-75
2022/10/06 05:03:55;;;;;;;7.03;1.30;;;14.50;99.90;;;;;;4998430;28;20653;-75
2022/10/06 05:06:25;;;;;;;4.43;1.33;;;14.50;99.90;;;;;;5015019;28;20185;-75
2022/10/06 05:08:56;;;;;;;4.30;1.33;;;14.50;99.90;;;;;;5015214;28;20187;-74
2022/10/06 05:11:23;;;;;;;8.43;1.30;;;14.40;99.90;;;;;;5014826;28;20165;-75
2022/10/06 05:13:51;;;;;;;8.63;1.10;;;14.40;99.90;;;;;;4998516;28;20176;-75
2022/10/06 05:16:17;;;;;;;4.15;1.10;;;14.40;99.90;;;;;;4998641;28;20176;-75
2022/10/06 05:18:44;;;;;;;5.55;1.38;;;14.30;99.90;;;;;;5015037;28;20634;-74
2022/10/06 05:21:13;;;;;;;3.72;1.08;;;14.30;99.90;;;;;;5014575;28;20195;-75
2022/10/06 05:23:41;;;;;;;4.10;1.00;;;14.20;99.90;;;;;;5014675;28;20186;-75
2022/10/06 05:26:07;;;;;;;5.28;1.20;;;14.20;99.90;;;;;;5032465;28;20181;-75
2022/10/06 05:28:34;;;;;;;4.82;0.93;;;14.20;99.90;;;;;;4998363;28;20208;-75
2022/10/06 05:31:05;;;;;;;7.10;1.35;;;14.10;99.90;;;;;;5014704;28;20248;-75
2022/10/06 05:33:33;;;;;;;8.38;1.58;;;14.10;99.90;;;;;;4997937;28;20205;-75
2022/10/06 05:36:02;;;;;;;10.05;1.45;;;14.10;99.90;;;;;;5014616;28;20173;-75
2022/10/06 05:38:29;;;;;;;6.57;1.27;;;14.10;99.90;;;;;;4998758;28;20162;-75
2022/10/06 05:41:09;;;;;;;5.55;1.60;;;14.00;99.90;;;;;;5014565;28;20201;-75
2022/10/06 05:43:35;;;;;;;8.68;1.50;;;14.00;99.90;;;;;;5031902;28;20272;-75
2022/10/06 05:46:04;;;;;;;11.00;2.10;;;14.00;99.90;;;;;;5014261;28;20178;-75
2022/10/06 05:48:31;;;;;;;5.25;1.30;;;13.90;99.90;;;;;;5014270;28;20205;-75
2022/10/06 05:51:06;;;;;;;7.03;1.58;;;13.90;99.90;;;;;;5014391;28;20170;-75
2022/10/06 05:53:34;;;;;;;5.85;1.33;;;13.90;99.90;;;;;;4997361;28;20205;-75
2022/10/06 05:56:07;;;;;;;5.38;1.23;;;13.90;99.90;;;;;;5013954;28;20165;-75
2022/10/06 05:58:35;;;;;;;8.65;2.55;;;13.90;99.90;;;;;;5014344;28;20166;-75
2022/10/06 06:01:18;;;;;;;6.78;1.65;;;13.90;99.90;;;;;;5013389;28;20224;-75
2022/10/06 06:04:01;;;;;;;11.70;1.90;;;13.90;99.90;;;;;;5001194;28;20281;-75
2022/10/06 06:06:34;;;;;;;5.28;1.55;;;13.80;99.90;;;;;;5013731;28;20177;-75
2022/10/06 06:09:08;;;;;;;7.32;1.30;;;13.90;99.90;;;;;;4998168;28;20189;-75
2022/10/06 06:11:39;;;;;;;7.47;1.25;;;13.90;99.90;;;;;;4997389;28;20213;-75
2022/10/06 06:14:08;;;;;;;6.75;1.10;;;13.90;99.90;;;;;;5013823;28;20163;-75
2022/10/06 06:16:35;;;;;;;9.88;1.20;;;13.90;99.90;;;;;;5014028;28;20162;-75
2022/10/06 06:19:02;;;;;;;6.75;1.35;;;13.90;99.90;;;;;;5014142;28;20182;-75
2022/10/06 06:21:30;;;;;;;5.70;1.58;;;13.90;99.90;;;;;;5013596;28;20181;-75
2022/10/06 06:23:56;;;;;;;6.90;1.27;;;13.90;99.90;;;;;;5013730;28;20184;-75
2022/10/06 06:26:26;;;;;;;6.20;1.20;;;13.90;99.90;;;;;;5013993;28;20256;-75
2022/10/06 06:28:55;;;;;;;9.10;1.30;;;13.90;99.90;;;;;;5013897;28;20580;-76
2022/10/06 06:31:25;;;;;;;7.25;1.67;;;13.90;99.90;;;;;;5013522;28;20249;-75
2022/10/06 06:33:57;;;;;;;6.70;2.88;;;14.00;99.90;;;;;;5013621;28;20166;-76
2022/10/06 06:36:28;;;;;;;6.30;2.10;;;14.00;99.90;;;;;;4997512;28;20304;-75
2022/10/06 06:38:57;;;;;;;8.57;1.20;;;14.00;99.90;;;;;;5013902;28;20267;-75
2022/10/06 06:41:25;;;;;;;10.52;3.00;;;14.10;99.90;;;;;;5031351;28;20166;-75
2022/10/06 06:43:58;;;;;;;8.20;1.45;;;14.10;99.90;;;;;;5000335;28;20239;-75
2022/10/06 06:46:38;;;;;;;8.23;1.60;;;14.10;99.90;;;;;;5006465;28;20178;-75
2022/10/06 06:49:10;;;;;;;7.65;1.50;;;14.10;99.90;;;;;;5013640;28;20209;-76
2022/10/06 06:51:42;;;;;;;8.15;1.73;;;14.10;99.90;;;;;;5013341;28;20204;-75
2022/10/06 06:54:09;;;;;;;10.63;1.75;;;14.20;99.90;;;;;;4996064;28;20178;-75
2022/10/06 06:56:39;;;;;;;6.82;1.40;;;14.20;99.90;;;;;;4993918;28;20181;-75
2022/10/06 06:59:12;;;;;;;12.38;1.83;;;14.20;99.90;;;;;;4978796;28;20601;-75
2022/10/06 07:01:44;;;;;;;6.43;1.50;;;14.20;99.90;;;;;;5013422;28;20642;-75
2022/10/06 07:04:11;;;;;;;8.90;1.97;;;14.30;99.90;;;;;;5013349;28;21140;-75
2022/10/06 07:06:41;;;;;;;8.77;1.43;;;14.30;99.90;;;;;;5012517;28;20953;-75
2022/10/06 07:09:09;;;;;;;5.40;1.33;;;14.40;99.90;;;;;;5000461;28;20650;-75
2022/10/06 07:11:38;;;;;;;10.50;1.80;;;14.50;99.90;;;;;;5017089;28;20615;-75
2022/10/06 07:14:11;;;;;;;10.20;1.80;;;14.50;99.90;;;;;;5000699;28;20253;-75
2022/10/06 07:25:05;;;;;;;10.65;1.70;;;14.70;99.90;;;;;;5017310;28;20714;-75
2022/10/06 07:25:23;;;;;;;8.82;1.73;;;14.80;99.90;;;;;;5016731;28;20269;-76
2022/10/06 07:27:51;;;;;;;10.13;1.30;;;14.80;99.90;;;;;;5000590;28;20205;-75
2022/10/06 07:30:24;;;;;;;6.07;1.40;;;15.00;99.90;;;;;;5016879;28;20627;-75
2022/10/06 07:33:10;;;;;;;5.57;2.33;;;15.00;99.90;;;;;;5018940;28;20644;-75
2022/10/06 07:35:37;;;;;;;8.73;2.40;;;15.10;99.90;;;;;;5016386;28;20560;-75
2022/10/06 07:38:07;;;;;;;8.47;2.23;;;15.20;99.90;;;;;;4984443;28;21315;-75
2022/10/06 07:40:37;;;;;;;11.13;2.40;;;15.30;99.90;;;;;;5014175;28;20590;-75
2022/10/06 07:43:06;;;;;;;8.70;1.33;;;15.50;99.90;;;;;;4999847;28;21559;-76
2022/10/06 07:45:37;;;;;;;8.50;1.47;;;15.60;99.90;;;;;;5016553;28;20931;-75
2022/10/06 07:48:06;;;;;;;9.73;1.63;;;16.00;99.90;;;;;;5013803;28;20600;-75
2022/10/06 07:50:33;;;;;;;4.07;1.23;;;16.60;99.90;;;;;;5016478;28;20588;-76
2022/10/06 07:53:06;;;;;;;6.60;1.33;;;17.30;99.90;;;;;;5016233;28;20727;-75
2022/10/06 07:55:35;;;;;;;7.07;1.57;;;18.20;99.90;;;;;;5016360;28;20922;-76
2022/10/06 07:58:24;;;;;;;6.27;1.20;;;19.30;99.90;;;;;;5016642;28;20565;-76
2022/10/06 08:00:53;;;;;;;5.80;1.30;;;20.50;99.90;;;;;;5016046;28;20568;-76
2022/10/06 08:03:19;;;;;;;4.80;1.40;;;21.60;99.90;;;;;;5032528;28;20201;-75
2022/10/06 08:05:55;;;;;;;13.10;1.70;;;22.60;99.90;;;;;;5033531;28;20725;-76
2022/10/06 08:08:21;;;;;;;6.20;1.50;;;23.60;99.90;;;;;;5014206;28;20561;-74
2022/10/06 08:10:58;;;;;;;6.20;1.23;;;24.70;99.90;;;;;;5026090;28;20580;-75
2022/10/06 08:13:24;;;;;;;4.77;1.47;;;25.60;99.90;;;;;;5033256;28;20256;-74
2022/10/06 08:15:50;;;;;;;6.60;2.00;;;26.50;99.90;;;;;;5033701;28;20651;-74
2022/10/06 08:18:17;;;;;;;6.27;1.70;;;27.40;99.90;;;;;;5033879;28;20159;-75
2022/10/06 08:20:44;;;;;;;4.23;1.20;;;28.10;99.90;;;;;;5033738;28;20651;-74
2022/10/06 08:23:11;;;;;;;11.10;2.07;;;28.90;99.90;;;;;;5033172;28;20610;-74
2022/10/06 08:25:42;;;;;;;5.70;1.90;;;29.50;99.90;;;;;;5033500;28;20937;-74
2022/10/06 08:28:09;;;;;;;5.20;1.40;;;30.10;98.20;;;;;;5015928;28;21180;-74
2022/10/06 08:30:34;;;;;;;5.10;1.47;;;30.60;97.20;;;;;;5015144;28;21136;-74
2022/10/06 08:33:00;;;;;;;7.10;1.60;;;31.10;95.80;;;;;;5032970;28;20650;-74
2022/10/06 08:35:27;;;;;;;8.67;1.97;;;31.40;93.40;;;;;;5033231;28;20560;-75
2022/10/06 08:37:53;;;;;;;6.17;2.03;;;31.80;92.10;;;;;;5033301;28;20160;-75
2022/10/06 08:40:19;;;;;;;7.80;1.83;;;32.20;90.10;;;;;;5033341;28;20554;-75
2022/10/06 08:42:48;;;;;;;5.13;1.70;;;32.40;86.70;;;;;;5033083;28;20198;-75
2022/10/06 08:45:41;;;;;;;7.40;1.53;;;32.70;84.40;;;;;;5032688;28;20173;-75
2022/10/06 08:48:28;;;;;;;9.43;1.57;;;33.20;84.00;;;;;;5033255;28;20570;-75
2022/10/06 08:51:03;;;;;;;4.97;1.57;;;33.50;80.60;;;;;;5016456;28;20567;-75
2022/10/06 08:53:37;;;;;;;3.13;1.37;;;33.80;77.50;;;;;;5014664;28;20639;-75
2022/10/06 08:56:16;;;;;;;4.47;1.20;;;34.10;76.70;;;;;;5033046;28;20560;-76
2022/10/06 08:58:58;;;;;;;5.37;1.80;;;34.30;71.50;;;;;;5032899;28;20663;-75
2022/10/06 09:01:44;;;;;;;4.27;1.20;;;34.60;70.60;;;;;;5015128;28;21004;-75
2022/10/06 09:04:27;;;;;;;8.40;2.77;;;34.80;68.40;;;;;;5014670;28;20560;-75
2022/10/06 09:07:14;;;;;;;5.80;1.80;;;35.00;66.60;;;;;;5032730;28;20596;-75
2022/10/06 09:10:04;;;;;;;5.27;1.80;;;35.20;66.10;;;;;;5032448;28;20575;-75
2022/10/06 09:12:44;;;;;;;5.10;1.47;;;35.50;63.90;;;;;;5014872;28;20627;-75
2022/10/06 09:15:13;;;;;;;5.77;1.30;;;35.70;62.10;;;;;;5032396;28;20556;-75
2022/10/06 09:17:45;;;;;;;6.93;1.43;;;35.80;60.40;;;;;;5030752;28;20588;-75
2022/10/06 09:20:19;;;;;;;6.07;1.23;;;35.80;58.60;;;;;;5012489;28;21753;-75
2022/10/06 09:22:49;;;;;;;3.47;1.20;;;35.90;56.90;;;;;;5010425;28;21242;-75
2022/10/06 09:25:24;;;;;;;4.07;1.87;;;36.00;57.20;;;;;;5024321;28;21116;-75
2022/10/06 09:27:54;;;;;;;4.13;1.60;;;36.10;56.20;;;;;;5031414;28;21081;-75
2022/10/06 09:30:20;;;;;;;5.37;1.40;;;36.20;55.60;;;;;;5031521;28;20572;-75
2022/10/06 09:32:53;;;;;;;5.63;1.30;;;36.20;54.60;;;;;;5024000;28;20680;-76
2022/10/06 09:35:22;;;;;;;5.30;1.27;;;36.20;53.50;;;;;;5031791;28;20612;-76
2022/10/06 09:37:56;;;;;;;4.23;1.30;;;36.20;53.20;;;;;;5032023;28;20938;-76
2022/10/06 09:40:45;;;;;;;4.60;1.33;;;36.30;52.40;;;;;;5031931;28;20586;-75
2022/10/06 09:43:28;;;;;;;4.20;1.23;;;36.30;52.30;;;;;;5031623;28;20634;-75
2022/10/06 09:45:55;;;;;;;6.40;2.00;;;36.50;51.90;;;;;;5031721;28;21127;-75
2022/10/06 09:48:25;;;;;;;6.60;1.27;;;36.50;51.60;;;;;;5032351;28;21030;-75
2022/10/06 09:51:09;;;;;;;4.03;1.17;;;36.50;50.50;;;;;;5030870;28;20663;-75
2022/10/06 09:53:38;;;;;;;3.10;1.30;;;36.60;50.10;;;;;;5030033;28;20759;-75
2022/10/06 09:56:18;;;;;;;2.77;0.97;;;36.60;49.90;;;;;;5027932;28;20600;-75
2022/10/06 09:58:59;;;;;;;3.90;1.03;;;36.60;48.70;;;;;;5009154;28;20587;-75
2022/10/06 10:01:30;;;;;;;3.83;0.90;;;36.70;48.80;;;;;;5003238;28;21186;-75
2022/10/06 10:03:59;;;;;;;5.90;1.30;;;36.70;47.80;;;;;;5005202;28;20671;-76
2022/10/06 10:06:29;;;;;;;3.60;1.30;;;36.60;46.90;;;;;;5031811;28;20561;-75
2022/10/06 10:09:18;;;;;;;7.27;1.20;;;36.50;45.60;;;;;;5031668;28;20561;-75
2022/10/06 10:14:36;;;;;;;4.27;1.60;;;35.70;45.20;;;;;;5031454;28;20556;-75
2022/10/06 10:17:09;;;;;;;4.10;2.03;;;35.30;44.70;;;;;;5031604;28;20937;-75
2022/10/06 10:19:41;;;;;;;4.20;1.70;;;34.90;45.20;;;;;;5013912;28;21163;-75
2022/10/06 10:22:22;;;;;;;4.40;1.80;;;34.50;44.50;;;;;;5013643;28;21211;-75
2022/10/06 10:25:29;;;;;;;3.70;1.50;;;34.20;45.40;;;;;;5031491;28;20929;-75
2022/10/06 10:28:13;;;;;;;6.30;1.47;;;34.00;45.10;;;;;;5031421;28;20581;-75
2022/10/06 10:30:52;;;;;;;3.53;1.40;;;33.80;44.70;;;;;;5013764;28;21171;-75
2022/10/06 10:33:30;;;;;;;3.87;1.63;;;33.70;45.20;;;;;;5031383;28;20663;-75
2022/10/06 10:35:58;;;;;;;5.00;1.47;;;33.50;43.80;;;;;;5031607;28;21124;-76
2022/10/06 10:38:25;;;;;;;4.20;1.20;;;33.40;44.30;;;;;;5031456;28;20569;-75
2022/10/06 10:41:05;;;;;;;2.90;1.10;;;33.30;44.30;;;;;;5023129;28;20620;-75
2022/10/06 10:43:58;;;;;;;2.53;0.97;;;33.10;42.80;;;;;;5033697;28;21038;-75
2022/10/06 10:46:41;;;;;;;4.80;1.10;;;32.90;42.90;;;;;;5029020;28;21135;-75
2022/10/06 10:49:19;;;;;;;6.90;1.00;;;32.80;43.10;;;;;;5035330;28;20579;-75
2022/10/06 10:51:57;;;;;;;3.03;0.90;;;32.70;43.20;;;;;;5035307;28;20666;-74
2022/10/06 10:54:46;;;;;;;3.73;1.00;;;32.60;42.70;;;;;;5034965;28;20953;-73
2022/10/06 10:57:16;;;;;;;5.10;1.30;;;32.40;43.00;;;;;;4998063;28;20595;-74
2022/10/06 10:59:55;;;;;;;4.60;1.47;;;32.30;42.30;;;;;;5015493;28;20570;-74
2022/10/06 11:02:22;;;;;;;5.50;1.80;;;32.10;42.60;;;;;;5028227;28;20621;-73
2022/10/06 11:04:56;;;;;;;3.30;1.23;;;31.90;42.00;;;;;;5029646;28;20598;-74
2022/10/06 11:07:30;;;;;;;3.50;1.00;;;31.70;42.00;;;;;;5034987;28;20583;-73
2022/10/06 11:10:09;;;;;;;3.73;1.17;;;31.50;42.00;;;;;;5034906;28;20588;-74
2022/10/06 11:13:08;;;;;;;3.00;1.20;;;31.30;42.00;;;;;;5030564;28;21006;-74
2022/10/06 11:15:55;;;;;;;3.70;1.13;;;31.10;42.30;;;;;;5029363;28;20575;-73
2022/10/06 11:18:29;;;;;;;3.03;1.00;;;30.90;42.50;;;;;;5034844;28;20566;-74
2022/10/06 11:21:02;;;;;;;3.30;1.53;;;30.90;42.20;;;;;;5034805;28;20589;-74
2022/10/06 11:23:53;;;;;;;5.70;1.97;;;30.80;42.50;;;;;;5034468;28;20610;-73
2022/10/06 11:26:25;;;;;;;3.17;1.30;;;30.70;42.20;;;;;;5034781;28;20564;-73
2022/10/06 11:29:06;;;;;;;2.87;0.90;;;30.50;42.00;;;;;;5016974;28;20569;-73
2022/10/06 11:31:43;;;;;;;3.57;1.10;;;30.30;41.90;;;;;;5031643;28;20642;-72
2022/10/06 11:34:09;;;;;;;5.00;1.97;;;30.10;42.30;;;;;;5016203;28;20781;-73
2022/10/06 11:36:38;;;;;;;4.57;0.87;;;29.90;42.30;;;;;;5014785;28;20604;-72
2022/10/06 11:39:16;;;;;;;4.90;1.37;;;29.80;42.50;;;;;;5012276;28;20595;-73
2022/10/06 11:41:51;;;;;;;4.70;2.20;;;29.70;42.20;;;;;;5027886;28;20580;-73
2022/10/06 11:44:27;;;;;;;2.93;1.70;;;29.50;41.80;;;;;;5016181;28;20670;-73
2022/10/06 11:47:05;;;;;;;4.40;1.80;;;29.30;42.00;;;;;;5033785;28;21207;-73
2022/10/06 11:49:31;;;;;;;4.73;1.37;;;29.10;42.10;;;;;;5027481;28;20985;-73
2022/10/06 11:52:17;;;;;;;3.27;1.60;;;28.90;42.60;;;;;;5013966;28;20715;-74
2022/10/06 11:54:54;;;;;;;3.77;1.70;;;28.80;42.90;;;;;;4999752;28;20938;-73
2022/10/06 11:57:23;;;;;;;4.83;1.40;;;28.70;42.60;;;;;;5014158;28;20597;-73
2022/10/06 12:00:15;;;;;;;6.03;1.10;;;28.60;42.20;;;;;;5014202;28;20656;-73
2022/10/06 12:02:43;;;;;;;2.43;0.90;;;28.40;42.00;;;;;;5013868;28;20609;-73
2022/10/06 12:05:09;;;;;;;4.27;1.00;;;28.20;42.40;;;;;;5013905;28;20569;-73
2022/10/06 12:07:53;;;;;;;3.77;1.00;;;28.10;42.60;;;;;;5014170;28;20588;-73
2022/10/06 12:10:28;;;;;;;3.93;1.10;;;27.90;42.40;;;;;;4996645;28;20221;-74
2022/10/06 12:13:36;;;;;;;4.80;1.27;;;27.80;42.70;;;;;;5013830;28;20650;-73
2022/10/06 12:16:04;;;;;;;5.40;1.20;;;27.60;42.80;;;;;;5032214;28;20582;-73
2022/10/06 12:18:36;;;;;;;4.93;1.50;;;27.50;43.20;;;;;;5033551;28;20586;-73
2022/10/06 12:21:13;;;;;;;6.03;1.20;;;27.50;43.30;;;;;;5033403;28;20580;-74
2022/10/06 12:24:03;;;;;;;3.83;1.20;;;27.40;43.30;;;;;;5033434;28;20619;-74
2022/10/06 12:27:04;;;;;;;3.40;1.23;;;27.20;43.30;;;;;;5033677;28;20593;-73
2022/10/06 12:29:49;;;;;;;2.60;1.10;;;27.00;43.00;;;;;;5015893;28;21139;-73
2022/10/06 12:32:21;;;;;;;2.00;0.80;;;26.90;43.00;;;;;;5032891;28;20648;-73
2022/10/06 12:35:14;;;;;;;5.37;1.33;;;26.70;43.00;;;;;;5033064;28;20595;-74
2022/10/06 12:38:04;;;;;;;4.40;1.60;;;26.50;43.00;;;;;;5033899;28;20633;-74
2022/10/06 12:40:48;;;;;;;4.10;1.40;;;26.10;42.50;;;;;;5019182;28;20567;-73
2022/10/06 12:43:17;;;;;;;4.70;1.40;;;25.70;42.30;;;;;;5033144;28;20596;-73
2022/10/06 12:45:48;;;;;;;4.20;1.03;;;25.30;42.30;;;;;;5033048;28;20965;-74
2022/10/06 12:48:29;;;;;;;3.93;1.30;;;24.80;41.90;;;;;;5015386;28;20572;-73
2022/10/06 12:51:09;;;;;;;4.13;1.17;;;24.30;41.60;;;;;;5033091;28;20913;-74
2022/10/06 12:53:47;;;;;;;3.87;1.50;;;23.90;41.60;;;;;;5014560;28;21257;-72
2022/10/06 12:56:30;;;;;;;4.43;1.00;;;23.50;41.90;;;;;;5024851;28;20612;-73
2022/10/06 12:58:57;;;;;;;4.37;0.90;;;23.10;42.30;;;;;;5033041;28;20561;-79
2022/10/06 13:01:25;;;;;;;5.60;1.30;;;22.70;42.50;;;;;;5032951;28;20560;-80
2022/10/06 13:03:52;;;;;;;4.10;1.20;;;22.50;42.60;;;;;;5013740;28;20628;-79
2022/10/06 13:06:23;;;;;;;3.30;0.90;;;22.20;42.70;;;;;;5015354;28;20632;-80
2022/10/06 13:09:05;;;;;;;6.00;0.90;;;22.00;42.90;;;;;;5033136;28;20720;-80
2022/10/06 13:11:30;;;;;;;7.87;1.10;;;21.80;43.40;;;;;;5032476;28;20664;-79
2022/10/06 13:14:06;;;;;;;3.20;0.70;;;21.60;43.40;;;;;;5032609;28;20671;-79
2022/10/06 13:16:38;;;;;;;4.40;0.90;;;21.40;43.40;;;;;;5032884;28;20161;-80
2022/10/06 13:19:05;;;;;;;3.00;1.10;;;21.30;43.60;;;;;;5015218;28;20657;-79